Time;durP1;ratioP1;P1;durP2;ratioP2;P2;SDS_P1;SDS_P2;PMS_P1;PMS_P2;Temp;Humidity;BMP_temperature;BMP_pressure;BME280_temperature;BME280_humidity;BME280_pressure;Samples;Min_cycle;Max_cycle;Signal;HPM_P1;HPM_P2
2022/01/04 00:01:57;;;;;;;44.70;29.70;;;;;;;;;;5111648;28;20042;-70
2022/01/04 00:05:01;;;;;;;42.33;28.92;;;;;;;;;;5112311;28;20039;-71
2022/01/04 00:08:09;;;;;;;43.88;30.13;;;;;;;;;;5112024;28;20058;-71
2022/01/04 00:11:20;;;;;;;50.53;30.38;;;;;;;;;;5099346;28;20043;-70
2022/01/04 00:14:24;;;;;;;46.70;30.77;;;;;;;;;;5112309;28;20063;-69
2022/01/04 00:17:28;;;;;;;49.47;31.02;;;;;;;;;;5112178;28;20042;-71
2022/01/04 00:20:33;;;;;;;49.92;31.73;;;;;;;;;;5112147;28;20051;-71
2022/01/04 00:23:37;;;;;;;50.53;32.08;;;;;;;;;;5112163;28;20035;-71
2022/01/04 00:26:41;;;;;;;49.92;31.52;;;;;;;;;;5099207;28;20046;-71
2022/01/04 00:29:46;;;;;;;43.30;30.17;;;;;;;;;;5111757;28;20513;-71
2022/01/04 00:32:50;;;;;;;51.35;33.17;;;;;;;;;;5111571;28;20043;-72
2022/01/04 00:35:55;;;;;;;57.83;36.42;;;;;;;;;;5087502;28;20660;-71
2022/01/04 00:38:59;;;;;;;52.85;35.15;;;;;;;;;;5098855;28;20059;-71
2022/01/04 00:42:03;;;;;;;57.10;35.67;;;;;;;;;;5099224;28;20659;-71
2022/01/04 00:45:08;;;;;;;51.13;36.08;;;;;;;;;;5111683;28;20062;-71
2022/01/04 00:51:16;;;;;;;55.72;38.00;;;;;;;;;;5099205;28;20039;-71
2022/01/04 00:54:22;;;;;;;54.63;37.28;;;;;;;;;;5111635;28;20042;-71
2022/01/04 00:57:27;;;;;;;58.50;37.38;;;;;;;;;;5111320;28;20043;-71
2022/01/04 01:00:31;;;;;;;54.17;37.80;;;;;;;;;;5111708;28;20046;-71
2022/01/04 01:03:35;;;;;;;55.17;37.83;;;;;;;;;;5111716;28;20056;-71
2022/01/04 01:06:40;;;;;;;53.97;37.08;;;;;;;;;;5111366;28;20050;-71
2022/01/04 01:10:09;;;;;;;55.38;39.15;;;;;;;;;;5098909;28;20046;-72
2022/01/04 01:13:09;;;;;;;61.65;38.17;;;;;;;;;;5115333;28;20047;-71
2022/01/04 01:16:13;;;;;;;59.42;38.75;;;;;;;;;;5115393;28;20486;-71
2022/01/04 01:19:18;;;;;;;59.08;41.15;;;;;;;;;;5102781;28;20038;-71
2022/01/04 01:22:22;;;;;;;57.85;39.92;;;;;;;;;;5115392;28;20050;-71
2022/01/04 01:25:26;;;;;;;62.90;40.83;;;;;;;;;;5115132;28;20529;-71
2022/01/04 01:28:31;;;;;;;58.72;41.45;;;;;;;;;;5115471;28;20046;-71
2022/01/04 01:31:35;;;;;;;65.97;41.47;;;;;;;;;;5091144;28;20046;-71
2022/01/04 01:34:41;;;;;;;53.70;37.92;;;;;;;;;;5115383;28;20043;-71
2022/01/04 01:37:45;;;;;;;58.15;39.50;;;;;;;;;;5115640;28;20505;-71
2022/01/04 01:40:51;;;;;;;62.03;40.00;;;;;;;;;;5115279;28;20062;-71
2022/01/04 01:43:56;;;;;;;61.70;41.13;;;;;;;;;;5115169;28;20390;-71
2022/01/04 01:47:00;;;;;;;63.47;41.03;;;;;;;;;;5114769;28;20509;-71
2022/01/04 01:50:05;;;;;;;62.60;42.75;;;;;;;;;;5114868;28;20390;-70
2022/01/04 01:53:09;;;;;;;67.80;44.58;;;;;;;;;;5114913;28;20050;-70
2022/01/04 01:56:16;;;;;;;61.25;39.70;;;;;;;;;;5102100;28;20046;-70
2022/01/04 01:59:20;;;;;;;57.53;37.45;;;;;;;;;;5114329;28;20042;-70
2022/01/04 02:02:24;;;;;;;52.13;36.95;;;;;;;;;;5114811;28;20386;-71
2022/01/04 02:05:30;;;;;;;59.30;40.33;;;;;;;;;;5114634;28;20050;-71
2022/01/04 02:08:37;;;;;;;53.20;38.17;;;;;;;;;;5114477;28;20046;-71
2022/01/04 02:11:41;;;;;;;61.17;41.42;;;;;;;;;;5114843;28;20497;-71
2022/01/04 02:14:52;;;;;;;56.80;40.55;;;;;;;;;;5114482;28;20042;-71
2022/01/04 02:17:56;;;;;;;59.47;39.38;;;;;;;;;;5114569;28;20054;-71
2022/01/04 02:21:00;;;;;;;63.17;40.35;;;;;;;;;;5114087;28;20043;-71
2022/01/04 02:24:05;;;;;;;62.65;40.60;;;;;;;;;;5113558;28;20042;-71
2022/01/04 02:27:10;;;;;;;61.38;42.28;;;;;;;;;;5101652;28;20059;-71
2022/01/04 02:30:16;;;;;;;58.75;40.67;;;;;;;;;;5114155;28;20043;-71
2022/01/04 02:33:20;;;;;;;63.30;40.60;;;;;;;;;;5114160;28;20046;-71
2022/01/04 02:36:24;;;;;;;59.45;40.38;;;;;;;;;;5101232;28;20580;-71
2022/01/04 02:39:30;;;;;;;56.05;38.45;;;;;;;;;;5113398;28;20059;-71
2022/01/04 02:42:35;;;;;;;55.80;38.80;;;;;;;;;;5113672;28;20402;-71
2022/01/04 02:45:39;;;;;;;56.78;39.35;;;;;;;;;;5113765;28;20042;-71
2022/01/04 02:48:44;;;;;;;54.13;38.85;;;;;;;;;;5101089;28;20054;-71
2022/01/04 02:51:48;;;;;;;55.70;37.55;;;;;;;;;;5113862;28;20047;-71
2022/01/04 02:54:53;;;;;;;56.25;37.05;;;;;;;;;;5113587;28;20042;-71
2022/01/04 02:57:57;;;;;;;56.28;37.38;;;;;;;;;;5113569;28;20497;-70
2022/01/04 03:01:02;;;;;;;58.28;36.90;;;;;;;;;;5101016;28;20050;-70
2022/01/04 03:04:07;;;;;;;51.60;36.38;;;;;;;;;;5113339;28;20038;-70
2022/01/04 03:07:12;;;;;;;54.08;38.20;;;;;;;;;;5113090;28;20133;-70
2022/01/04 03:10:16;;;;;;;50.53;36.60;;;;;;;;;;5113388;28;20046;-70
2022/01/04 03:13:20;;;;;;;52.03;37.17;;;;;;;;;;5100509;28;20051;-70
2022/01/04 03:16:25;;;;;;;54.85;38.38;;;;;;;;;;5112722;28;20047;-70
2022/01/04 03:19:29;;;;;;;58.65;38.97;;;;;;;;;;5113154;28;20050;-70
2022/01/04 03:22:33;;;;;;;57.30;39.15;;;;;;;;;;5113126;28;20493;-70
2022/01/04 03:25:39;;;;;;;54.67;36.85;;;;;;;;;;5112828;28;20505;-70
2022/01/04 03:28:44;;;;;;;52.65;37.10;;;;;;;;;;5112704;28;20047;-70
2022/01/04 03:31:48;;;;;;;53.25;35.60;;;;;;;;;;5112763;28;20046;-70
2022/01/04 03:34:53;;;;;;;53.20;36.10;;;;;;;;;;5112080;28;20046;-71
2022/01/04 03:37:57;;;;;;;52.85;37.78;;;;;;;;;;5112380;28;20848;-70
2022/01/04 03:41:02;;;;;;;52.10;36.50;;;;;;;;;;5112379;28;20514;-70
2022/01/04 03:44:07;;;;;;;52.40;37.05;;;;;;;;;;5112622;28;20038;-70
2022/01/04 03:47:11;;;;;;;55.10;38.83;;;;;;;;;;5112347;28;20047;-71
2022/01/04 03:50:15;;;;;;;52.78;37.45;;;;;;;;;;5112532;28;20058;-71
2022/01/04 03:53:20;;;;;;;50.55;36.40;;;;;;;;;;5112187;28;20050;-71
2022/01/04 03:56:24;;;;;;;49.38;36.55;;;;;;;;;;5112481;28;20046;-71
2022/01/04 03:59:28;;;;;;;49.35;35.90;;;;;;;;;;5112399;28;20070;-71
2022/01/04 04:02:33;;;;;;;56.78;36.40;;;;;;;;;;5112021;28;20030;-71
2022/01/04 04:05:37;;;;;;;48.75;34.25;;;;;;;;;;5111948;28;20050;-70
2022/01/04 04:08:41;;;;;;;54.22;37.47;;;;;;;;;;5099496;28;20051;-70
2022/01/04 04:11:45;;;;;;;54.50;37.10;;;;;;;;;;5111980;28;20060;-70
2022/01/04 04:14:50;;;;;;;48.72;36.45;;;;;;;;;;5111878;28;20050;-71
2022/01/04 04:17:54;;;;;;;53.67;37.75;;;;;;;;;;5111917;28;20039;-71
2022/01/04 04:20:58;;;;;;;49.70;35.95;;;;;;;;;;5112047;28;20109;-71
2022/01/04 04:24:03;;;;;;;51.40;36.35;;;;;;;;;;5111758;28;20402;-70
2022/01/04 04:27:07;;;;;;;55.97;36.38;;;;;;;;;;5111682;28;20046;-70
2022/01/04 04:30:11;;;;;;;48.28;34.70;;;;;;;;;;5111778;28;20375;-70
2022/01/04 04:33:16;;;;;;;51.45;35.08;;;;;;;;;;5111802;28;20054;-70
2022/01/04 04:36:23;;;;;;;48.20;34.20;;;;;;;;;;5099355;28;20594;-70
2022/01/04 04:39:27;;;;;;;51.20;33.25;;;;;;;;;;5111461;28;20055;-70
2022/01/04 04:42:31;;;;;;;46.85;33.33;;;;;;;;;;5098840;28;20047;-70
2022/01/04 04:45:36;;;;;;;46.33;30.75;;;;;;;;;;5111555;28;20446;-70
2022/01/04 04:48:40;;;;;;;45.00;29.50;;;;;;;;;;5111475;28;20055;-70
2022/01/04 04:51:44;;;;;;;49.55;30.70;;;;;;;;;;5099099;28;20054;-71
2022/01/04 04:54:49;;;;;;;42.05;29.00;;;;;;;;;;5111347;28;20055;-71
2022/01/04 04:57:53;;;;;;;39.50;27.77;;;;;;;;;;5111431;28;20043;-71
2022/01/04 05:00:57;;;;;;;42.20;28.48;;;;;;;;;;5111379;28;20058;-71
2022/01/04 05:04:02;;;;;;;42.90;28.40;;;;;;;;;;5098872;28;20043;-71
2022/01/04 05:07:06;;;;;;;44.58;27.05;;;;;;;;;;5111456;28;20051;-70
2022/01/04 05:10:11;;;;;;;37.30;26.08;;;;;;;;;;5111633;28;20058;-71
2022/01/04 05:13:15;;;;;;;41.45;25.88;;;;;;;;;;5098728;28;20069;-70
2022/01/04 05:16:19;;;;;;;40.08;26.95;;;;;;;;;;5111437;28;20042;-70
2022/01/04 05:19:24;;;;;;;60.03;27.25;;;;;;;;;;5111252;28;20039;-71
2022/01/04 05:22:28;;;;;;;38.60;25.65;;;;;;;;;;5098596;28;20051;-71
2022/01/04 05:25:32;;;;;;;36.70;25.95;;;;;;;;;;5111248;28;20489;-71
2022/01/04 05:28:38;;;;;;;40.70;25.92;;;;;;;;;;5110892;28;20161;-71
2022/01/04 05:31:43;;;;;;;41.70;27.45;;;;;;;;;;5111019;28;20110;-71
2022/01/04 05:34:47;;;;;;;39.10;26.15;;;;;;;;;;5111151;28;20050;-71
2022/01/04 05:37:55;;;;;;;38.20;25.38;;;;;;;;;;5098672;28;20047;-71
2022/01/04 05:40:59;;;;;;;39.33;25.38;;;;;;;;;;5111086;28;20046;-69
2022/01/04 05:44:03;;;;;;;31.08;22.50;;;;;;;;;;5110870;28;20051;-71
2022/01/04 05:47:08;;;;;;;33.70;24.67;;;;;;;;;;5110602;28;20050;-71
2022/01/04 05:50:12;;;;;;;33.80;24.48;;;;;;;;;;5111181;28;20039;-70
2022/01/04 05:53:16;;;;;;;39.03;24.08;;;;;;;;;;5111139;28;20039;-70
2022/01/04 05:56:39;;;;;;;31.55;22.00;;;;;;;;;;5110737;28;20043;-70
2022/01/04 05:59:43;;;;;;;31.50;21.98;;;;;;;;;;5113653;28;20050;-70
2022/01/04 06:02:47;;;;;;;31.15;21.08;;;;;;;;;;5114652;28;20043;-71
2022/01/04 06:05:53;;;;;;;31.23;22.15;;;;;;;;;;5114425;28;20058;-71
2022/01/04 06:08:58;;;;;;;30.10;21.95;;;;;;;;;;5114375;28;20054;-71
2022/01/04 06:12:03;;;;;;;36.47;21.85;;;;;;;;;;5114208;28;20386;-71
2022/01/04 06:15:12;;;;;;;34.63;22.80;;;;;;;;;;5090250;28;20030;-71
2022/01/04 06:18:16;;;;;;;33.53;21.95;;;;;;;;;;5114284;28;20050;-71
2022/01/04 06:21:21;;;;;;;32.25;22.02;;;;;;;;;;5114208;28;20501;-72
2022/01/04 06:24:25;;;;;;;31.20;21.10;;;;;;;;;;5114001;28;20394;-71
2022/01/04 06:27:29;;;;;;;31.40;23.45;;;;;;;;;;5114107;28;20050;-70
2022/01/04 06:30:34;;;;;;;32.45;22.88;;;;;;;;;;5101355;28;20047;-73
2022/01/04 06:33:39;;;;;;;31.83;22.83;;;;;;;;;;5114172;28;20047;-71
2022/01/04 06:36:43;;;;;;;32.45;20.35;;;;;;;;;;5113665;28;20035;-71
2022/01/04 06:39:48;;;;;;;28.27;19.65;;;;;;;;;;5113610;28;20055;-69
2022/01/04 06:42:52;;;;;;;33.83;20.17;;;;;;;;;;5113573;28;20043;-68
2022/01/04 06:45:57;;;;;;;28.42;20.05;;;;;;;;;;5113713;28;20122;-69
2022/01/04 06:49:02;;;;;;;30.17;19.23;;;;;;;;;;5100672;28;20051;-68
2022/01/04 06:52:06;;;;;;;28.15;17.27;;;;;;;;;;5113750;28;20042;-69
2022/01/04 06:55:10;;;;;;;27.92;17.35;;;;;;;;;;5113539;28;20045;-68
2022/01/04 06:58:15;;;;;;;39.53;19.48;;;;;;;;;;5113251;28;20501;-67
2022/01/04 07:01:19;;;;;;;29.77;19.38;;;;;;;;;;5113247;28;20046;-68
2022/01/04 07:04:24;;;;;;;26.73;18.00;;;;;;;;;;5113379;28;20042;-68
2022/01/04 07:07:28;;;;;;;38.13;18.92;;;;;;;;;;5112998;28;20650;-68
2022/01/04 07:10:33;;;;;;;38.70;18.80;;;;;;;;;;5112788;28;20034;-68
2022/01/04 07:13:37;;;;;;;39.17;18.73;;;;;;;;;;5112959;28;20066;-68
2022/01/04 07:16:41;;;;;;;30.40;19.10;;;;;;;;;;5100413;28;20138;-68
2022/01/04 07:19:49;;;;;;;29.95;18.55;;;;;;;;;;5113229;28;20489;-68
2022/01/04 07:22:53;;;;;;;33.40;19.25;;;;;;;;;;5113020;28;20066;-69
2022/01/04 07:25:57;;;;;;;43.33;19.88;;;;;;;;;;5112769;28;20054;-68
2022/01/04 07:29:03;;;;;;;30.70;20.75;;;;;;;;;;5112658;28;20050;-68
2022/01/04 07:32:10;;;;;;;32.78;20.90;;;;;;;;;;5112800;28;20074;-68
2022/01/04 07:35:14;;;;;;;40.35;25.98;;;;;;;;;;5112425;28;20043;-68
2022/01/04 07:38:19;;;;;;;36.00;24.75;;;;;;;;;;5099778;28;20046;-70
2022/01/04 07:41:23;;;;;;;35.28;23.05;;;;;;;;;;5112247;28;20047;-69
2022/01/04 07:44:28;;;;;;;32.95;22.13;;;;;;;;;;5112125;28;20035;-69
2022/01/04 07:47:32;;;;;;;38.08;22.95;;;;;;;;;;5099521;28;20046;-69
2022/01/04 07:50:36;;;;;;;33.88;23.27;;;;;;;;;;5112249;28;20043;-69
2022/01/04 07:53:40;;;;;;;38.03;22.38;;;;;;;;;;5112333;28;20062;-69
2022/01/04 07:56:45;;;;;;;33.58;21.02;;;;;;;;;;5112031;28;20047;-69
2022/01/04 07:59:49;;;;;;;48.15;24.55;;;;;;;;;;5112334;28;20105;-69
2022/01/04 08:02:54;;;;;;;56.42;25.70;;;;;;;;;;5112061;28;20502;-69
2022/01/04 08:05:59;;;;;;;38.22;22.00;;;;;;;;;;5112218;28;20062;-69
2022/01/04 08:09:03;;;;;;;38.40;25.92;;;;;;;;;;5111784;28;20062;-68
2022/01/04 08:12:08;;;;;;;30.52;19.98;;;;;;;;;;5111860;28;20039;-71
2022/01/04 08:15:12;;;;;;;32.13;19.10;;;;;;;;;;5111854;28;20050;-70
2022/01/04 08:18:16;;;;;;;31.33;18.55;;;;;;;;;;5111682;28;20055;-70
2022/01/04 08:21:21;;;;;;;31.92;18.77;;;;;;;;;;5098744;28;20466;-71
2022/01/04 08:24:25;;;;;;;25.95;18.25;;;;;;;;;;5087856;28;20043;-69
2022/01/04 08:27:29;;;;;;;27.40;18.05;;;;;;;;;;5098751;28;20046;-69
2022/01/04 08:30:34;;;;;;;30.27;18.17;;;;;;;;;;5111644;28;20046;-69
2022/01/04 08:33:39;;;;;;;25.30;16.08;;;;;;;;;;5111499;28;20386;-70
2022/01/04 08:36:43;;;;;;;31.85;15.43;;;;;;;;;;5111513;28;20042;-70
2022/01/04 08:39:47;;;;;;;28.25;16.10;;;;;;;;;;5098652;28;20601;-70
2022/01/04 08:42:51;;;;;;;24.15;14.85;;;;;;;;;;5111784;28;20047;-70
2022/01/04 08:45:56;;;;;;;28.35;16.20;;;;;;;;;;5098881;28;20054;-70
2022/01/04 08:49:00;;;;;;;26.30;14.05;;;;;;;;;;5111427;28;20406;-70
2022/01/04 08:52:05;;;;;;;21.85;13.48;;;;;;;;;;5099372;28;20042;-71
2022/01/04 08:55:10;;;;;;;17.42;10.75;;;;;;;;;;5111364;28;20046;-69
2022/01/04 08:58:15;;;;;;;23.20;10.85;;;;;;;;;;5111856;28;20038;-69
2022/01/04 09:01:19;;;;;;;17.52;11.13;;;;;;;;;;5111535;28;20051;-70
2022/01/04 09:04:23;;;;;;;21.15;12.25;;;;;;;;;;5111416;28;20046;-70
2022/01/04 09:07:28;;;;;;;19.73;13.15;;;;;;;;;;5087115;28;20055;-70
2022/01/04 09:10:34;;;;;;;20.38;13.25;;;;;;;;;;5098770;28;20051;-69
2022/01/04 09:13:42;;;;;;;24.63;14.80;;;;;;;;;;5111307;28;20046;-71
2022/01/04 09:20:11;;;;;;;24.25;14.90;;;;;;;;;;5110988;28;20498;-69
2022/01/04 09:23:18;;;;;;;21.77;14.70;;;;;;;;;;5111152;28;20054;-70
2022/01/04 09:26:23;;;;;;;33.17;14.55;;;;;;;;;;5110966;28;20047;-69
2022/01/04 09:29:27;;;;;;;23.65;13.25;;;;;;;;;;5110760;28;20054;-71
2022/01/04 09:32:33;;;;;;;22.25;13.82;;;;;;;;;;5111957;28;20041;-70
2022/01/04 09:35:37;;;;;;;19.52;13.60;;;;;;;;;;5114151;28;20051;-69
2022/01/04 09:38:42;;;;;;;23.17;13.48;;;;;;;;;;5114768;28;20046;-70
2022/01/04 09:41:47;;;;;;;18.75;12.75;;;;;;;;;;5114865;28;20414;-71
2022/01/04 09:44:51;;;;;;;20.80;12.35;;;;;;;;;;5114422;28;20398;-69
2022/01/04 09:47:56;;;;;;;20.50;12.43;;;;;;;;;;5114395;28;20058;-69
2022/01/04 09:51:01;;;;;;;27.52;13.50;;;;;;;;;;5114351;28;20394;-70
2022/01/04 09:54:05;;;;;;;20.90;12.98;;;;;;;;;;5114802;28;20043;-71
2022/01/04 09:57:09;;;;;;;25.10;12.75;;;;;;;;;;5114712;28;20055;-72
2022/01/04 10:00:15;;;;;;;27.80;11.90;;;;;;;;;;5101786;28;20043;-70
2022/01/04 10:03:22;;;;;;;24.23;12.23;;;;;;;;;;5101603;28;20046;-71
2022/01/04 10:06:26;;;;;;;15.43;10.30;;;;;;;;;;5114407;28;20395;-69
2022/01/04 10:09:57;;;;;;;18.60;10.20;;;;;;;;;;5101382;28;20066;-71
2022/01/04 10:13:06;;;;;;;16.70;10.63;;;;;;;;;;5113886;28;20034;-73
2022/01/04 10:16:16;;;;;;;19.02;9.85;;;;;;;;;;5114013;28;20069;-69
2022/01/04 10:19:34;;;;;;;18.30;10.50;;;;;;;;;;5114323;28;20045;-69
2022/01/04 10:22:38;;;;;;;20.33;9.80;;;;;;;;;;5113842;28;20039;-73
2022/01/04 10:25:45;;;;;;;15.95;8.65;;;;;;;;;;5101146;28;20046;-71
2022/01/04 10:28:49;;;;;;;18.27;9.02;;;;;;;;;;5113733;28;20062;-69
2022/01/04 10:31:55;;;;;;;19.00;9.32;;;;;;;;;;5113853;28;20043;-72
2022/01/04 10:34:59;;;;;;;18.02;9.88;;;;;;;;;;5113588;28;20059;-70
2022/01/04 10:38:16;;;;;;;19.52;10.10;;;;;;;;;;5100822;28;20051;-70
2022/01/04 10:41:23;;;;;;;18.98;9.73;;;;;;;;;;5113983;28;20046;-70
2022/01/04 10:44:32;;;;;;;15.13;8.18;;;;;;;;;;5088636;28;20039;-70
2022/01/04 10:47:36;;;;;;;14.98;6.25;;;;;;;;;;5113606;28;20047;-70
2022/01/04 10:50:41;;;;;;;10.27;4.65;;;;;;;;;;5101222;28;20055;-70
2022/01/04 10:53:47;;;;;;;14.98;4.90;;;;;;;;;;5113309;28;20044;-69
2022/01/04 10:57:03;;;;;;;11.05;4.47;;;;;;;;;;5111768;28;20394;-69
2022/01/04 11:00:20;;;;;;;14.13;4.10;;;;;;;;;;5112591;28;20063;-71
2022/01/04 11:03:26;;;;;;;16.73;4.50;;;;;;;;;;5112646;28;20043;-70
2022/01/04 11:06:37;;;;;;;11.77;4.80;;;;;;;;;;5112853;28;20398;-72
2022/01/04 11:09:42;;;;;;;9.35;4.35;;;;;;;;;;5100514;28;20054;-70
2022/01/04 11:12:46;;;;;;;8.88;4.38;;;;;;;;;;5112968;28;20032;-73
2022/01/04 11:15:52;;;;;;;14.05;5.60;;;;;;;;;;5100281;28;20121;-70
2022/01/04 11:18:57;;;;;;;11.70;4.47;;;;;;;;;;5113113;28;20043;-71
2022/01/04 11:22:04;;;;;;;10.18;4.95;;;;;;;;;;5112566;28;20525;-71
2022/01/04 11:25:10;;;;;;;8.02;4.20;;;;;;;;;;5100212;28;20083;-69
2022/01/04 11:28:15;;;;;;;12.75;3.47;;;;;;;;;;5112741;28;20451;-69
2022/01/04 11:31:19;;;;;;;10.30;3.70;;;;;;;;;;5112659;28;20046;-70
2022/01/04 11:34:42;;;;;;;7.93;3.40;;;;;;;;;;5112295;28;20051;-71
2022/01/04 11:37:54;;;;;;;7.68;3.25;;;;;;;;;;5111984;28;20031;-69
2022/01/04 11:40:58;;;;;;;6.05;3.75;;;;;;;;;;5100148;28;20047;-72
2022/01/04 11:44:23;;;;;;;20.55;4.32;;;;;;;;;;5112320;28;20040;-73
2022/01/04 11:47:28;;;;;;;5.93;3.67;;;;;;;;;;5099961;28;20050;-69
2022/01/04 11:50:36;;;;;;;6.80;3.22;;;;;;;;;;5112057;28;20486;-70
2022/01/04 11:54:01;;;;;;;6.10;3.10;;;;;;;;;;5099928;28;20055;-71
2022/01/04 11:57:09;;;;;;;9.60;3.85;;;;;;;;;;5112170;28;20035;-70
2022/01/04 12:00:22;;;;;;;14.52;3.70;;;;;;;;;;5111738;28;20036;-71
2022/01/04 12:03:37;;;;;;;7.57;4.13;;;;;;;;;;5111825;28;20050;-70
2022/01/04 12:06:45;;;;;;;14.70;4.75;;;;;;;;;;5111872;28;20393;-70
2022/01/04 12:09:50;;;;;;;6.00;3.85;;;;;;;;;;5099214;28;20067;-69
2022/01/04 12:13:06;;;;;;;19.75;5.03;;;;;;;;;;5111639;28;20336;-72
2022/01/04 12:16:10;;;;;;;12.10;3.85;;;;;;;;;;5099580;28;20493;-70
2022/01/04 12:19:15;;;;;;;6.95;4.10;;;;;;;;;;5112045;28;20046;-70
2022/01/04 12:22:30;;;;;;;11.93;4.70;;;;;;;;;;5099514;28;20040;-71
2022/01/04 12:25:37;;;;;;;14.50;5.07;;;;;;;;;;5111856;28;20106;-71
2022/01/04 12:28:43;;;;;;;12.57;4.55;;;;;;;;;;5111687;28;20304;-70
2022/01/04 12:31:52;;;;;;;9.20;3.67;;;;;;;;;;5099126;28;20035;-70
2022/01/04 12:35:03;;;;;;;12.07;3.10;;;;;;;;;;5111679;28;20466;-69
2022/01/04 12:38:07;;;;;;;13.83;3.10;;;;;;;;;;5098864;28;20572;-70
2022/01/04 12:41:14;;;;;;;8.18;3.72;;;;;;;;;;5111647;28;20042;-70
2022/01/04 12:44:23;;;;;;;7.82;3.25;;;;;;;;;;5098760;28;20039;-70
2022/01/04 12:47:28;;;;;;;8.20;4.13;;;;;;;;;;5111695;28;20039;-70
2022/01/04 12:50:33;;;;;;;10.65;3.72;;;;;;;;;;5111529;28;20359;-71
2022/01/04 12:53:37;;;;;;;14.05;4.80;;;;;;;;;;5111467;28;20050;-70
2022/01/04 12:57:02;;;;;;;12.48;3.50;;;;;;;;;;5111575;28;20047;-69
2022/01/04 13:00:09;;;;;;;13.07;2.78;;;;;;;;;;5111672;28;20113;-69
2022/01/04 13:03:30;;;;;;;10.65;2.85;;;;;;;;;;5111438;28;20043;-70
2022/01/04 13:06:35;;;;;;;11.43;3.72;;;;;;;;;;5111667;28;20050;-69
2022/01/04 13:09:39;;;;;;;15.52;3.80;;;;;;;;;;5115488;28;20066;-70
2022/01/04 13:12:45;;;;;;;11.52;3.13;;;;;;;;;;5115503;28;20047;-70
2022/01/04 13:15:50;;;;;;;14.57;4.07;;;;;;;;;;5115206;28;20502;-69
2022/01/04 13:18:54;;;;;;;8.57;3.45;;;;;;;;;;5102071;28;20035;-69
2022/01/04 13:22:00;;;;;;;13.02;4.45;;;;;;;;;;5115260;28;20036;-68
2022/01/04 13:25:06;;;;;;;13.18;3.90;;;;;;;;;;5115063;28;20391;-68
2022/01/04 13:28:11;;;;;;;11.55;4.13;;;;;;;;;;5102573;28;20051;-69
2022/01/04 13:31:23;;;;;;;8.23;3.42;;;;;;;;;;5115260;28;20039;-68
2022/01/04 13:34:27;;;;;;;7.07;3.72;;;;;;;;;;5114940;28;20035;-69
2022/01/04 13:37:31;;;;;;;12.85;4.30;;;;;;;;;;5102512;28;20032;-68
2022/01/04 13:40:37;;;;;;;11.98;3.97;;;;;;;;;;5115144;28;20054;-67
2022/01/04 13:43:45;;;;;;;15.02;3.72;;;;;;;;;;5114851;28;20042;-68
2022/01/04 13:46:49;;;;;;;9.38;3.35;;;;;;;;;;5102244;28;20043;-69
2022/01/04 13:49:54;;;;;;;16.33;3.47;;;;;;;;;;5114771;28;20047;-69
2022/01/04 13:53:02;;;;;;;6.35;3.22;;;;;;;;;;5102408;28;20050;-69
2022/01/04 13:56:08;;;;;;;11.68;4.00;;;;;;;;;;5114709;28;20372;-68
2022/01/04 13:59:22;;;;;;;12.38;3.70;;;;;;;;;;5114092;28;20042;-71
2022/01/04 14:02:27;;;;;;;19.33;4.68;;;;;;;;;;5102175;28;20039;-70
2022/01/04 14:05:36;;;;;;;12.68;3.22;;;;;;;;;;5114351;28;20047;-70
2022/01/04 14:08:47;;;;;;;13.90;5.25;;;;;;;;;;5101727;28;20066;-72
2022/01/04 14:11:52;;;;;;;22.48;6.60;;;;;;;;;;5114195;28;20039;-70
2022/01/04 14:14:57;;;;;;;11.40;3.35;;;;;;;;;;5114338;28;20051;-69
2022/01/04 14:18:10;;;;;;;14.93;4.53;;;;;;;;;;5114363;28;20050;-71
2022/01/04 14:21:15;;;;;;;10.70;4.63;;;;;;;;;;5114096;28;20046;-67
2022/01/04 14:24:39;;;;;;;12.57;4.25;;;;;;;;;;5101447;28;20046;-69
2022/01/04 14:27:44;;;;;;;19.02;4.78;;;;;;;;;;5101532;28;20051;-69
2022/01/04 14:30:49;;;;;;;20.80;4.72;;;;;;;;;;5114201;28;20783;-69
2022/01/04 14:33:53;;;;;;;11.13;4.63;;;;;;;;;;5113804;28;20102;-70
2022/01/04 14:36:58;;;;;;;13.25;5.85;;;;;;;;;;5101435;28;20059;-70
2022/01/04 14:40:03;;;;;;;17.45;5.78;;;;;;;;;;5100765;28;20418;-70
2022/01/04 14:43:07;;;;;;;31.52;5.78;;;;;;;;;;5113628;28;20119;-70
2022/01/04 14:46:11;;;;;;;14.32;5.75;;;;;;;;;;5113823;28;20046;-68
2022/01/04 14:49:16;;;;;;;17.48;6.25;;;;;;;;;;5100903;28;20074;-69
2022/01/04 14:52:20;;;;;;;21.38;6.75;;;;;;;;;;5113329;28;20047;-70
2022/01/04 14:55:27;;;;;;;24.90;8.10;;;;;;;;;;5113040;28;20402;-68
2022/01/04 14:58:32;;;;;;;15.75;7.07;;;;;;;;;;5100690;28;20402;-71
2022/01/04 15:01:38;;;;;;;21.73;7.75;;;;;;;;;;5100273;28;20049;-72
2022/01/04 15:04:42;;;;;;;24.42;6.63;;;;;;;;;;5100313;28;20597;-68
2022/01/04 15:07:47;;;;;;;15.02;6.35;;;;;;;;;;5089077;28;20051;-71
2022/01/04 15:10:51;;;;;;;14.57;6.03;;;;;;;;;;5112962;28;20054;-71
2022/01/04 15:13:55;;;;;;;37.00;6.22;;;;;;;;;;5112988;28;20046;-71
2022/01/04 15:16:59;;;;;;;20.13;5.78;;;;;;;;;;5113130;28;20051;-70
2022/01/04 15:20:06;;;;;;;15.40;4.78;;;;;;;;;;5112964;28;20047;-70
2022/01/04 15:23:10;;;;;;;20.30;5.13;;;;;;;;;;5112200;28;20047;-69
2022/01/04 15:26:15;;;;;;;20.38;5.57;;;;;;;;;;5112397;28;20051;-69
2022/01/04 15:29:19;;;;;;;17.35;5.78;;;;;;;;;;5112404;28;20502;-71
2022/01/04 15:32:24;;;;;;;29.70;8.68;;;;;;;;;;5112498;28;20395;-69
2022/01/04 15:35:31;;;;;;;43.15;7.00;;;;;;;;;;5099968;28;20047;-70
2022/01/04 15:38:37;;;;;;;15.25;5.93;;;;;;;;;;5112553;28;20067;-69
2022/01/04 15:41:41;;;;;;;16.77;5.53;;;;;;;;;;5099936;28;20047;-69
2022/01/04 15:44:45;;;;;;;22.63;6.53;;;;;;;;;;5112353;28;20050;-71
2022/01/04 15:47:50;;;;;;;25.45;7.28;;;;;;;;;;5112381;28;20050;-71
2022/01/04 15:50:55;;;;;;;18.45;6.85;;;;;;;;;;5112132;28;20074;-71
2022/01/04 15:54:03;;;;;;;25.88;6.50;;;;;;;;;;5099381;28;20042;-69
2022/01/04 15:57:07;;;;;;;31.52;7.53;;;;;;;;;;5111893;28;20050;-69
2022/01/04 16:00:11;;;;;;;35.95;6.25;;;;;;;;;;5087883;28;20047;-72
2022/01/04 16:03:16;;;;;;;26.17;7.22;;;;;;;;;;5099637;28;20050;-70
2022/01/04 16:06:21;;;;;;;46.25;7.50;;;;;;;;;;5099610;28;20497;-70
2022/01/04 16:09:27;;;;;;;28.60;7.22;;;;;;;;;;5111503;28;20058;-69
2022/01/04 16:12:31;;;;;;;24.90;6.25;;;;;;;;;;5099408;28;20046;-72
2022/01/04 16:16:15;;;;;;;60.67;9.85;;;;;;;;;;5111884;28;20050;-71
2022/01/04 16:22:30;;;;;;;32.45;7.22;;;;;;;;;;5099128;28;20478;-70
2022/01/04 16:25:35;;;;;;;22.92;5.97;;;;;;;;;;5098926;28;20497;-69
2022/01/04 16:28:39;;;;;;;13.93;5.28;;;;;;;;;;5099106;28;20245;-68
2022/01/04 16:31:45;;;;;;;26.33;7.03;;;;;;;;;;5111553;28;20051;-69
2022/01/04 16:34:49;;;;;;;31.45;8.70;;;;;;;;;;5111544;28;20450;-70
2022/01/04 16:37:53;;;;;;;17.40;5.68;;;;;;;;;;5111636;28;20042;-71
2022/01/04 16:40:58;;;;;;;18.13;5.57;;;;;;;;;;5111507;28;20497;-68
2022/01/04 16:44:04;;;;;;;17.95;5.78;;;;;;;;;;5111079;28;20386;-68
2022/01/04 16:47:08;;;;;;;23.90;7.07;;;;;;;;;;5098726;28;20050;-69
2022/01/04 16:50:14;;;;;;;12.57;4.88;;;;;;;;;;5110948;28;20054;-69
2022/01/04 16:53:19;;;;;;;39.95;6.88;;;;;;;;;;5111236;28;20055;-68
2022/01/04 16:56:23;;;;;;;24.35;6.25;;;;;;;;;;5111329;28;20225;-69
2022/01/04 16:59:30;;;;;;;24.42;5.60;;;;;;;;;;5111152;28;20506;-68
2022/01/04 17:02:34;;;;;;;15.60;5.35;;;;;;;;;;5111399;28;20048;-69
2022/01/04 17:05:41;;;;;;;16.67;5.35;;;;;;;;;;5111350;28;20043;-69
2022/01/04 17:08:48;;;;;;;17.27;6.40;;;;;;;;;;5111120;28;20050;-70
2022/01/04 17:18:21;;;;;;;28.75;8.60;;;;;;;;;;5110536;28;20312;-69
2022/01/04 17:21:25;;;;;;;33.70;6.50;;;;;;;;;;5110885;28;20049;-68
2022/01/04 17:24:29;;;;;;;20.52;6.13;;;;;;;;;;5110880;28;20054;-69
2022/01/04 17:27:38;;;;;;;19.77;6.93;;;;;;;;;;5110596;28;20051;-69
2022/01/04 17:30:43;;;;;;;31.42;8.75;;;;;;;;;;5098349;28;20046;-69
2022/01/04 17:33:47;;;;;;;29.08;8.43;;;;;;;;;;5097850;28;20399;-70
2022/01/04 17:36:52;;;;;;;31.23;8.30;;;;;;;;;;5110458;28;20043;-69
2022/01/04 17:39:56;;;;;;;41.42;9.38;;;;;;;;;;5110242;28;20047;-70
2022/01/04 17:43:00;;;;;;;27.17;7.50;;;;;;;;;;5110519;28;20125;-69
2022/01/04 17:46:05;;;;;;;25.35;7.38;;;;;;;;;;5110040;28;20509;-69
2022/01/04 17:49:09;;;;;;;23.60;7.00;;;;;;;;;;5110263;28;20402;-69
2022/01/04 17:52:13;;;;;;;27.45;9.18;;;;;;;;;;5110725;28;20042;-69
2022/01/04 17:55:18;;;;;;;37.75;9.30;;;;;;;;;;5114351;28;20057;-69
2022/01/04 17:58:22;;;;;;;23.58;8.50;;;;;;;;;;5114545;28;20050;-69
2022/01/04 18:01:26;;;;;;;25.70;9.77;;;;;;;;;;5114255;28;20055;-69
2022/01/04 18:04:33;;;;;;;22.88;8.10;;;;;;;;;;5114552;28;20493;-69
2022/01/04 18:07:38;;;;;;;25.75;8.25;;;;;;;;;;5114204;28;20042;-69
2022/01/04 18:10:42;;;;;;;31.05;7.95;;;;;;;;;;5113914;28;20051;-69
2022/01/04 18:13:47;;;;;;;28.13;8.45;;;;;;;;;;5114317;28;20042;-69
2022/01/04 18:16:52;;;;;;;26.52;6.82;;;;;;;;;;5114075;28;20601;-70
2022/01/04 18:19:56;;;;;;;20.67;6.75;;;;;;;;;;5113222;28;20502;-69
2022/01/04 18:23:00;;;;;;;30.92;7.93;;;;;;;;;;5112491;28;20051;-69
2022/01/04 18:26:05;;;;;;;24.38;7.63;;;;;;;;;;5113564;28;20043;-69